createdAt,value
2023-01-20T00:01:23.102Z,0.39
2023-01-20T00:03:50.633Z,0.44
2023-01-20T00:06:17.375Z,-0.23
2023-01-20T00:08:43.929Z,0.57
2023-01-20T00:11:12.619Z,0.09
2023-01-20T00:13:39.652Z,0.58
2023-01-20T00:16:08.973Z,0.49
2023-01-20T00:18:36.283Z,0.41
2023-01-20T00:21:11.846Z,-0.24
2023-01-20T00:23:39.792Z,-0.09
2023-01-20T00:26:16.121Z,0.26
2023-01-20T00:28:43.690Z,0.27
2023-01-20T00:31:18.706Z,0.50
2023-01-20T00:33:46.743Z,0.56
2023-01-20T00:36:15.005Z,0.49
2023-01-20T00:38:41.922Z,-0.48
2023-01-20T00:41:09.519Z,0.41
2023-01-20T00:43:36.369Z,0.38
2023-01-20T00:46:04.093Z,0.39
2023-01-20T00:48:30.832Z,0.42
2023-01-20T00:50:57.752Z,0.43
2023-01-20T00:53:24.531Z,0.43
2023-01-20T00:55:51.251Z,0.47
2023-01-20T00:58:17.969Z,-0.69
2023-01-20T01:00:47.444Z,0.38
2023-01-20T01:03:14.250Z,-0.60
2023-01-20T01:05:40.893Z,-0.53
2023-01-20T01:08:07.835Z,-0.60
2023-01-20T01:10:34.700Z,0.31
2023-01-20T01:13:02.569Z,-0.25
2023-01-20T01:15:29.306Z,-0.80
2023-01-20T01:17:57.964Z,-0.53
2023-01-20T01:20:24.729Z,0.18
2023-01-20T01:22:51.688Z,-1.07
2023-01-20T01:25:18.986Z,-0.88
2023-01-20T01:27:45.671Z,-0.13
2023-01-20T01:30:12.765Z,0.10
2023-01-20T01:32:39.457Z,0.09
2023-01-20T01:35:06.439Z,0.15
2023-01-20T01:37:33.053Z,0.17
2023-01-20T01:39:59.602Z,0.13
2023-01-20T01:42:26.728Z,-0.27
2023-01-20T01:45:12.023Z,0.21
2023-01-20T01:47:40.984Z,0.22
2023-01-20T01:50:11.476Z,0.24
2023-01-20T01:52:41.427Z,0.34
2023-01-20T01:55:08.557Z,0.42
2023-01-20T01:57:35.605Z,0.36
2023-01-20T02:00:04.262Z,0.12
2023-01-20T02:02:41.493Z,0.11
2023-01-20T02:05:08.688Z,-0.52
2023-01-20T02:07:36.106Z,0.33
2023-01-20T02:10:02.712Z,0.31
2023-01-20T02:12:29.759Z,0.37
2023-01-20T02:14:59.186Z,0.16
2023-01-20T02:17:31.008Z,-1.22
2023-01-20T02:20:11.963Z,-0.87
2023-01-20T02:22:38.613Z,-1.20
2023-01-20T02:25:20.686Z,-0.89
2023-01-20T02:27:59.287Z,-0.66
2023-01-20T02:30:46.788Z,-0.29
2023-01-20T02:33:19.880Z,-0.35
2023-01-20T02:35:51.584Z,-0.06
2023-01-20T02:38:33.364Z,-0.18
2023-01-20T02:41:23.393Z,-0.16
2023-01-20T02:43:55.723Z,-0.43
2023-01-20T02:46:32.109Z,-0.53
2023-01-20T02:49:10.050Z,-0.62
2023-01-20T02:52:11.040Z,-1.17
2023-01-20T02:54:41.074Z,-0.65
2023-01-20T02:57:12.349Z,-0.42
2023-01-20T02:59:44.336Z,-0.71
2023-01-20T03:02:16.572Z,-0.54
2023-01-20T03:04:49.994Z,-0.31
2023-01-20T03:07:19.823Z,-0.52
2023-01-20T03:09:51.191Z,-1.20
2023-01-20T03:12:22.298Z,-0.38
2023-01-20T03:14:51.975Z,-0.70
2023-01-20T03:17:22.839Z,-1.00
2023-01-20T03:19:49.714Z,-0.58
2023-01-20T03:22:17.000Z,-0.50
2023-01-20T03:24:46.715Z,-0.70
2023-01-20T03:27:13.721Z,-0.34
2023-01-20T03:29:40.393Z,-0.28
2023-01-20T03:32:10.503Z,-0.64
2023-01-20T03:34:39.650Z,-0.94
2023-01-20T03:37:07.327Z,-1.26
2023-01-20T03:39:39.633Z,-1.92
2023-01-20T03:42:13.896Z,-1.66
2023-01-20T03:45:07.497Z,-1.05
2023-01-20T03:48:04.247Z,-1.33
2023-01-20T03:50:47.593Z,-0.87
2023-01-20T03:53:28.667Z,-1.03
2023-01-20T03:56:11.910Z,-0.57
2023-01-20T03:58:43.404Z,-0.66
2023-01-20T04:01:17.928Z,-1.26
2023-01-20T04:03:48.571Z,-1.33
2023-01-20T04:06:18.032Z,-0.90
2023-01-20T04:08:50.941Z,-1.87
2023-01-20T04:11:18.027Z,-2.84
2023-01-20T04:13:44.918Z,-3.09
2023-01-20T04:16:16.002Z,-2.30
2023-01-20T04:18:45.731Z,-2.31
2023-01-20T04:21:29.815Z,-2.00
2023-01-20T04:24:14.794Z,-1.93
2023-01-20T04:26:41.535Z,-1.74
2023-01-20T04:29:13.078Z,-4.37
2023-01-20T04:31:40.158Z,-1.12
2023-01-20T04:34:07.490Z,-1.14
2023-01-20T04:36:34.177Z,-1.87
2023-01-20T04:39:00.726Z,-2.23
2023-01-20T04:41:27.350Z,-1.87
2023-01-20T04:43:53.877Z,-1.95
2023-01-20T04:46:20.560Z,-1.96
2023-01-20T04:48:47.160Z,-1.88
2023-01-20T04:51:13.851Z,-2.40
2023-01-20T04:53:40.635Z,-2.05
2023-01-20T04:56:11.867Z,-2.20
2023-01-20T04:58:39.271Z,-1.93
2023-01-20T05:01:05.971Z,-1.87
2023-01-20T05:03:32.695Z,-2.38
2023-01-20T05:05:59.241Z,-2.71
2023-01-20T05:08:25.941Z,-2.94
2023-01-20T05:10:52.568Z,-2.98
2023-01-20T05:13:19.147Z,-3.12
2023-01-20T05:15:45.807Z,-4.02
2023-01-20T05:18:12.500Z,-2.89
2023-01-20T05:20:39.445Z,-2.56
2023-01-20T05:23:06.995Z,-2.95
2023-01-20T05:25:33.577Z,-3.90
2023-01-20T05:28:00.744Z,-2.94
2023-01-20T05:30:27.564Z,-2.98
2023-01-20T05:32:54.231Z,-3.41
2023-01-20T05:35:20.964Z,-3.22
2023-01-20T05:37:47.613Z,-2.92
2023-01-20T05:40:14.238Z,-2.82
2023-01-20T05:42:40.921Z,-3.06
2023-01-20T05:45:09.217Z,-3.22
2023-01-20T05:47:35.970Z,-2.89
2023-01-20T05:50:02.931Z,-3.28
2023-01-20T05:52:29.510Z,-3.40
2023-01-20T05:54:56.081Z,-3.47
2023-01-20T05:57:25.838Z,-3.85
2023-01-20T05:59:52.865Z,-3.64
2023-01-20T06:02:20.079Z,-3.61
2023-01-20T06:04:47.039Z,-4.01
2023-01-20T06:07:14.860Z,-4.70
2023-01-20T06:09:41.950Z,-5.04
2023-01-20T06:12:08.582Z,-3.45
2023-01-20T06:14:35.171Z,-3.47
2023-01-20T06:17:01.913Z,-4.53
2023-01-20T06:19:28.774Z,-3.48
2023-01-20T06:21:55.364Z,-3.94
2023-01-20T06:24:22.012Z,-3.35
2023-01-20T06:26:50.907Z,-4.17
2023-01-20T06:29:17.749Z,-2.81
2023-01-20T06:31:45.526Z,-2.46
2023-01-20T06:34:12.922Z,-5.41
2023-01-20T06:36:39.770Z,-2.73
2023-01-20T06:39:06.558Z,-3.15
2023-01-20T06:41:33.336Z,-2.61
2023-01-20T06:43:59.984Z,-3.41
2023-01-20T06:46:26.690Z,-6.08
2023-01-20T06:49:00.190Z,-3.70
2023-01-20T06:51:28.841Z,-4.66
2023-01-20T06:53:56.362Z,-6.40
2023-01-20T06:56:23.579Z,-3.43
2023-01-20T06:58:50.623Z,-3.91
2023-01-20T07:01:23.966Z,-3.94
2023-01-20T07:03:51.356Z,-3.74
2023-01-20T07:06:31.285Z,-3.49
2023-01-20T07:08:59.863Z,-4.23
2023-01-20T07:11:27.746Z,-3.55
2023-01-20T07:13:54.675Z,-3.97
2023-01-20T07:16:21.304Z,-4.20
2023-01-20T07:18:49.357Z,-3.08
2023-01-20T07:21:16.750Z,-2.61
2023-01-20T07:23:43.615Z,-2.34
2023-01-20T07:26:12.814Z,-2.27
2023-01-20T07:28:39.859Z,-2.92
2023-01-20T07:31:10.537Z,-2.19
2023-01-20T07:33:38.064Z,-2.08
2023-01-20T07:36:06.824Z,-1.93
2023-01-20T07:38:33.625Z,-2.33
2023-01-20T07:41:04.734Z,-2.79
2023-01-20T07:43:32.138Z,-2.37
2023-01-20T07:46:01.168Z,-4.98
2023-01-20T07:48:30.319Z,-2.70
2023-01-20T07:51:05.262Z,-1.93
2023-01-20T07:53:34.907Z,-2.27
2023-01-20T07:56:03.265Z,-2.16
2023-01-20T07:58:30.414Z,-2.19
2023-01-20T08:00:57.224Z,-1.90
2023-01-20T08:03:27.321Z,-1.95
2023-01-20T08:05:54.118Z,-1.98
2023-01-20T08:08:20.703Z,-1.94
2023-01-20T08:10:53.908Z,-2.09
2023-01-20T08:13:20.719Z,-2.20
2023-01-20T08:15:47.288Z,-2.01
2023-01-20T08:18:13.891Z,-2.02
2023-01-20T08:20:41.104Z,-2.12
2023-01-20T08:23:07.804Z,-2.08
2023-01-20T08:25:34.365Z,-2.18
2023-01-20T08:28:01.008Z,-1.89
2023-01-20T08:30:27.709Z,-2.03
2023-01-20T08:32:54.487Z,-2.44
2023-01-20T08:35:21.062Z,-1.99
2023-01-20T08:37:47.696Z,-1.86
2023-01-20T08:40:14.433Z,-1.77
2023-01-20T08:42:41.212Z,-1.83
2023-01-20T08:45:08.794Z,-1.64
2023-01-20T08:47:44.300Z,-1.57
2023-01-20T08:50:12.819Z,-2.00
2023-01-20T08:52:39.671Z,-1.60
2023-01-20T08:55:06.768Z,-1.80
2023-01-20T08:57:33.378Z,-1.92
2023-01-20T09:00:00.118Z,-1.53
2023-01-20T09:02:26.853Z,-1.59
2023-01-20T09:04:54.514Z,-1.38
2023-01-20T09:07:21.066Z,-1.37
2023-01-20T09:09:47.754Z,-1.24
2023-01-20T09:12:14.373Z,-1.48
2023-01-20T09:14:41.029Z,-2.16
2023-01-20T09:17:07.589Z,-1.38
2023-01-20T09:19:34.245Z,-2.36
2023-01-20T09:22:00.793Z,-2.33
2023-01-20T09:24:27.432Z,-1.62
2023-01-20T09:26:54.070Z,-1.42
2023-01-20T09:29:21.031Z,-1.92
2023-01-20T09:31:53.455Z,-1.65
2023-01-20T09:34:24.514Z,-1.51
2023-01-20T09:36:56.615Z,-3.82
2023-01-20T09:39:42.784Z,-1.82
2023-01-20T09:43:09.443Z,-1.49
2023-01-20T09:45:50.241Z,-1.33
2023-01-20T09:48:52.045Z,-1.42
2023-01-20T09:51:52.987Z,-1.25
2023-01-20T09:54:25.020Z,-2.31
2023-01-20T09:56:56.319Z,-1.50
2023-01-20T09:59:27.486Z,-2.70
2023-01-20T10:02:03.662Z,-1.50
2023-01-20T10:04:43.071Z,-1.25
2023-01-20T10:07:12.125Z,-1.35
2023-01-20T10:09:43.700Z,-1.25
2023-01-20T10:12:19.964Z,-1.14
2023-01-20T10:14:55.201Z,-1.17
2023-01-20T10:17:37.433Z,-2.92
2023-01-20T10:20:21.562Z,-1.77
2023-01-20T10:22:55.833Z,-1.85
2023-01-20T10:25:28.209Z,-3.50
2023-01-20T10:28:09.313Z,-0.97
2023-01-20T10:30:37.476Z,-0.76
2023-01-20T10:33:18.259Z,-0.85
2023-01-20T10:35:50.686Z,-0.77
2023-01-20T10:38:46.464Z,-0.76
2023-01-20T10:41:33.223Z,-1.20
2023-01-20T10:44:00.502Z,-0.93
2023-01-20T10:46:39.264Z,-0.84
2023-01-20T10:49:36.776Z,-0.70
2023-01-20T10:52:29.684Z,-1.04
2023-01-20T10:55:44.163Z,-0.85
2023-01-20T10:58:28.533Z,-0.78
2023-01-20T11:00:57.049Z,-1.28
2023-01-20T11:03:25.383Z,-1.13
2023-01-20T11:05:52.705Z,-1.08
2023-01-20T11:08:29.696Z,-1.10
2023-01-20T11:10:59.409Z,-1.10
2023-01-20T11:13:26.243Z,-1.23
2023-01-20T11:15:58.926Z,-1.28
2023-01-20T11:18:31.366Z,-1.13
2023-01-20T11:21:04.996Z,-0.98
2023-01-20T11:23:49.827Z,-1.85
2023-01-20T11:26:28.559Z,-0.87
2023-01-20T11:28:58.613Z,-0.84
2023-01-20T11:31:41.510Z,-1.37
2023-01-20T11:34:27.725Z,-1.00
2023-01-20T11:37:03.179Z,-0.80
2023-01-20T11:39:36.112Z,-1.38
2023-01-20T11:42:25.944Z,-0.74
2023-01-20T11:44:53.918Z,-0.80
2023-01-20T11:47:33.751Z,-0.74
2023-01-20T11:50:09.319Z,-0.49
2023-01-20T11:52:40.634Z,-1.15
2023-01-20T11:55:13.875Z,-0.69
2023-01-20T11:57:48.505Z,-0.59
2023-01-20T12:00:20.998Z,-0.52
2023-01-20T12:03:02.316Z,-0.97
2023-01-20T12:06:08.718Z,-0.86
2023-01-20T12:08:50.256Z,-0.99
2023-01-20T12:11:41.967Z,-1.54
2023-01-20T12:14:29.754Z,-0.82
2023-01-20T12:17:11.351Z,-0.73
2023-01-20T12:19:58.255Z,-0.72
2023-01-20T12:22:32.965Z,-0.81
2023-01-20T12:25:10.684Z,-0.87
2023-01-20T12:27:44.987Z,-1.23
2023-01-20T12:30:38.079Z,-1.42
2023-01-20T12:33:05.719Z,-2.10
2023-01-20T12:35:44.303Z,-0.92
2023-01-20T12:38:19.046Z,-1.39
2023-01-20T12:40:50.079Z,-0.73
2023-01-20T12:43:35.216Z,-0.63
2023-01-20T12:46:31.027Z,-0.66
2023-01-20T12:49:15.697Z,-0.67
2023-01-20T12:51:59.696Z,-0.58
2023-01-20T12:54:48.361Z,-0.49
2023-01-20T12:57:30.404Z,-0.32
2023-01-20T13:00:15.742Z,-0.30
2023-01-20T13:03:04.313Z,-0.29
2023-01-20T13:05:57.294Z,-0.26
2023-01-20T13:08:28.980Z,-0.36
2023-01-20T13:11:16.708Z,-0.84
2023-01-20T13:14:14.908Z,-0.39
2023-01-20T13:17:00.280Z,-0.29
2023-01-20T13:19:37.630Z,-0.52
2023-01-20T13:22:22.031Z,-0.35
2023-01-20T13:24:53.133Z,-0.61
2023-01-20T13:27:36.400Z,-0.61
2023-01-20T13:30:08.316Z,-0.83
2023-01-20T13:32:45.057Z,-0.91
2023-01-20T13:35:17.664Z,-0.68
2023-01-20T13:37:56.406Z,-0.59
2023-01-20T13:40:47.247Z,-1.17
2023-01-20T13:43:22.831Z,-0.62
2023-01-20T13:46:09.395Z,-0.87
2023-01-20T13:49:03.915Z,-0.86
2023-01-20T13:51:36.823Z,-0.80
2023-01-20T13:54:25.181Z,-0.95
2023-01-20T13:56:52.755Z,-1.62
2023-01-20T13:59:19.419Z,-1.16
2023-01-20T14:01:46.215Z,-1.09
2023-01-20T14:04:17.013Z,-1.03
2023-01-20T14:06:48.727Z,-1.50
2023-01-20T14:09:23.724Z,-1.13
2023-01-20T14:11:53.277Z,-0.96
2023-01-20T14:14:23.564Z,-0.84
2023-01-20T14:16:51.057Z,-0.74
2023-01-20T14:19:29.759Z,-0.72
2023-01-20T14:21:59.442Z,-1.16
2023-01-20T14:24:35.960Z,-1.16
2023-01-20T14:27:31.984Z,-1.05
2023-01-20T14:30:24.148Z,-1.32
2023-01-20T14:32:52.598Z,-1.13
2023-01-20T14:35:34.219Z,-2.07
2023-01-20T14:38:02.025Z,-1.40
2023-01-20T14:40:31.950Z,-1.70
2023-01-20T14:43:06.731Z,-1.32
2023-01-20T14:45:36.287Z,-1.49
2023-01-20T14:48:05.279Z,-3.12
2023-01-20T14:50:32.244Z,-1.51
2023-01-20T14:52:58.986Z,-1.50
2023-01-20T14:55:36.477Z,-1.43
2023-01-20T14:58:19.684Z,-1.77
2023-01-20T15:00:48.535Z,-1.89
2023-01-20T15:03:25.476Z,-1.59
2023-01-20T15:06:00.601Z,-1.69
2023-01-20T15:08:56.711Z,-1.50
2023-01-20T15:11:31.142Z,-1.86
2023-01-20T15:14:00.965Z,-1.87
2023-01-20T15:16:49.422Z,-1.90
2023-01-20T15:19:20.064Z,-1.97
2023-01-20T15:21:50.953Z,-1.94
2023-01-20T15:24:24.809Z,-1.99
2023-01-20T15:26:54.127Z,-2.43
2023-01-20T15:29:24.152Z,-2.42
2023-01-20T15:31:52.168Z,-2.33
2023-01-20T15:34:19.564Z,-2.58
2023-01-20T15:36:47.567Z,-2.74
2023-01-20T15:39:19.200Z,-2.40
2023-01-20T15:41:48.600Z,-2.51
2023-01-20T15:44:15.671Z,-2.38
2023-01-20T15:46:42.495Z,-2.35
2023-01-20T15:49:13.153Z,-2.26
2023-01-20T15:51:39.814Z,-3.41
2023-01-20T15:54:09.726Z,-2.33
2023-01-20T15:56:39.360Z,-3.27
2023-01-20T15:59:13.980Z,-2.31
2023-01-20T16:01:40.705Z,-2.26
2023-01-20T16:04:07.459Z,-2.35
2023-01-20T16:06:34.723Z,-2.58
2023-01-20T16:09:12.843Z,-3.12
2023-01-20T16:11:42.119Z,-3.33
2023-01-20T16:14:08.753Z,-3.28
2023-01-20T16:16:35.797Z,-3.08
2023-01-20T16:19:02.561Z,-3.13
2023-01-20T16:21:29.174Z,-3.25
2023-01-20T16:23:55.763Z,-3.27
2023-01-20T16:26:28.215Z,-4.11
2023-01-20T16:28:57.187Z,-3.61
2023-01-20T16:31:25.507Z,-3.91
2023-01-20T16:33:54.091Z,-3.66
2023-01-20T16:36:22.515Z,-3.51
2023-01-20T16:38:50.321Z,-3.88
2023-01-20T16:41:21.648Z,-3.79
2023-01-20T16:43:49.132Z,-4.29
2023-01-20T16:46:17.968Z,-3.83
2023-01-20T16:48:45.114Z,-3.89
2023-01-20T16:51:21.302Z,-3.54
2023-01-20T16:53:48.295Z,-3.78
2023-01-20T16:56:27.683Z,-5.12
2023-01-20T16:58:59.225Z,-3.34
2023-01-20T17:01:26.491Z,-3.98
2023-01-20T17:03:58.727Z,-4.49
2023-01-20T17:06:28.456Z,-4.62
2023-01-20T17:08:56.996Z,-4.87
2023-01-20T17:11:32.359Z,-4.96
2023-01-20T17:14:02.150Z,-5.12
2023-01-20T17:16:29.341Z,-4.88
2023-01-20T17:18:58.528Z,-5.44
2023-01-20T17:21:27.970Z,-4.46
2023-01-20T17:23:57.845Z,-4.57
2023-01-20T17:26:24.941Z,-4.54
2023-01-20T17:29:04.938Z,-4.01
2023-01-20T17:31:35.417Z,-4.47
2023-01-20T17:34:09.523Z,-4.83
2023-01-20T17:36:36.207Z,-4.97
2023-01-20T17:39:04.463Z,-5.13
2023-01-20T17:41:31.617Z,-5.52
2023-01-20T17:43:58.208Z,-6.00
2023-01-20T17:46:27.793Z,-5.72
2023-01-20T17:48:57.461Z,-5.27
2023-01-20T17:51:26.200Z,-4.62
2023-01-20T17:53:53.219Z,-7.31
2023-01-20T17:56:21.993Z,-4.79
2023-01-20T17:58:49.416Z,-4.40
2023-01-20T18:01:21.885Z,-4.49
2023-01-20T18:03:50.640Z,-4.35
2023-01-20T18:06:19.975Z,-4.03
2023-01-20T18:08:55.262Z,-4.02
2023-01-20T18:11:23.355Z,-5.06
2023-01-20T18:13:55.279Z,-4.11
2023-01-20T18:16:24.150Z,-5.15
2023-01-20T18:18:50.975Z,-5.39
2023-01-20T18:21:22.370Z,-5.63
2023-01-20T18:23:50.803Z,-5.24
2023-01-20T18:26:20.749Z,-4.54
2023-01-20T18:28:47.988Z,-4.41
2023-01-20T18:31:17.868Z,-4.43
2023-01-20T18:33:53.087Z,-4.72
2023-01-20T18:36:31.819Z,-6.28
2023-01-20T18:39:00.952Z,-6.02
2023-01-20T18:41:30.035Z,-5.74
2023-01-20T18:43:57.328Z,-5.35
2023-01-20T18:46:24.668Z,-7.04
2023-01-20T18:48:55.308Z,-5.92
2023-01-20T18:51:25.037Z,-5.98
2023-01-20T18:53:58.074Z,-6.20
2023-01-20T18:56:25.917Z,-5.86
2023-01-20T18:58:53.814Z,-5.62
2023-01-20T19:01:33.754Z,-5.28
2023-01-20T19:04:01.633Z,-6.39
2023-01-20T19:06:31.330Z,-5.63
2023-01-20T19:08:59.315Z,-4.67
2023-01-20T19:11:31.675Z,-6.37
2023-01-20T19:13:59.069Z,-5.79
2023-01-20T19:16:28.701Z,-5.63
2023-01-20T19:18:57.760Z,-5.26
2023-01-20T19:21:25.695Z,-4.81
2023-01-20T19:23:57.046Z,-5.17
2023-01-20T19:26:25.742Z,-5.12
2023-01-20T19:29:02.334Z,-5.28
2023-01-20T19:31:31.441Z,-5.36
2023-01-20T19:33:58.365Z,-5.17
2023-01-20T19:36:25.793Z,-5.54
2023-01-20T19:38:52.433Z,-5.54
2023-01-20T19:41:25.706Z,-5.83
2023-01-20T19:43:57.370Z,-5.85
2023-01-20T19:46:29.516Z,-5.92
2023-01-20T19:48:58.048Z,-6.33
2023-01-20T19:51:25.791Z,-6.14
2023-01-20T19:54:00.399Z,-5.70
2023-01-20T19:56:30.461Z,-5.43
2023-01-20T19:58:58.084Z,-5.61
2023-01-20T20:01:38.073Z,-5.25
2023-01-20T20:04:07.689Z,-5.81
2023-01-20T20:06:39.609Z,-5.04
2023-01-20T20:09:15.766Z,-5.72
2023-01-20T20:11:43.098Z,-6.12
2023-01-20T20:14:13.738Z,-6.72
2023-01-20T20:16:41.015Z,-5.69
2023-01-20T20:19:09.925Z,-8.59
2023-01-20T20:21:36.539Z,-5.38
2023-01-20T20:24:05.294Z,-5.63
2023-01-20T20:26:34.787Z,-5.05
2023-01-20T20:29:02.831Z,-4.92
2023-01-20T20:31:29.937Z,-5.03
2023-01-20T20:34:00.747Z,-5.45
2023-01-20T20:36:29.588Z,-5.33
2023-01-20T20:38:58.351Z,-6.41
2023-01-20T20:41:28.873Z,-5.85
2023-01-20T20:43:57.263Z,-5.63
2023-01-20T20:46:24.603Z,-6.70
2023-01-20T20:48:55.940Z,-5.95
2023-01-20T20:51:25.878Z,-6.15
2023-01-20T20:53:56.647Z,-5.36
2023-01-20T20:56:24.492Z,-5.97
2023-01-20T20:59:01.053Z,-5.65
2023-01-20T21:01:30.022Z,-5.24
2023-01-20T21:03:57.901Z,-5.45
2023-01-20T21:06:25.478Z,-6.35
2023-01-20T21:08:52.494Z,-6.48
2023-01-20T21:11:20.362Z,-5.63
2023-01-20T21:13:49.288Z,-5.86
2023-01-20T21:16:20.736Z,-6.05
2023-01-20T21:18:48.200Z,-5.41
2023-01-20T21:21:17.006Z,-6.10
2023-01-20T21:23:49.497Z,-5.30
2023-01-20T21:26:16.418Z,-5.95
2023-01-20T21:28:44.367Z,-5.72
2023-01-20T21:31:15.047Z,-6.00
2023-01-20T21:33:45.666Z,-5.84
2023-01-20T21:36:13.336Z,-6.21
2023-01-20T21:38:46.273Z,-5.70
2023-01-20T21:41:14.383Z,-6.42
2023-01-20T21:44:01.621Z,-6.17
2023-01-20T21:46:30.498Z,-6.52
2023-01-20T21:49:15.667Z,-6.20
2023-01-20T21:52:01.002Z,-5.79
2023-01-20T21:54:29.329Z,-5.49
2023-01-20T21:56:56.087Z,-6.04
2023-01-20T21:59:23.018Z,-5.93
2023-01-20T22:01:50.016Z,-6.26
2023-01-20T22:04:16.962Z,-6.09
2023-01-20T22:06:44.228Z,-6.21
2023-01-20T22:09:11.178Z,-6.21
2023-01-20T22:11:37.840Z,-5.94
2023-01-20T22:14:04.563Z,-6.38
2023-01-20T22:16:32.284Z,-5.92
2023-01-20T22:18:59.234Z,-6.40
2023-01-20T22:21:26.329Z,-6.70
2023-01-20T22:23:53.697Z,-6.40
2023-01-20T22:26:20.316Z,-6.32
2023-01-20T22:28:46.875Z,-6.03
2023-01-20T22:31:19.706Z,-9.26
2023-01-20T22:33:51.686Z,-6.16
2023-01-20T22:36:19.601Z,-6.23
2023-01-20T22:38:46.213Z,-6.14
2023-01-20T22:41:13.190Z,-7.03
2023-01-20T22:43:41.138Z,-5.93
2023-01-20T22:46:07.904Z,-5.97
2023-01-20T22:48:34.738Z,-6.38
2023-01-20T22:51:07.365Z,-6.22
2023-01-20T22:53:34.433Z,-6.17
2023-01-20T22:56:03.427Z,-5.87
2023-01-20T22:58:30.987Z,-5.97
2023-01-20T23:00:58.014Z,-7.22
2023-01-20T23:03:24.755Z,-5.84
2023-01-20T23:05:59.168Z,-6.97
2023-01-20T23:08:27.346Z,-5.83
2023-01-20T23:10:55.808Z,-5.88
2023-01-20T23:13:23.171Z,-5.69
2023-01-20T23:15:51.263Z,-5.96
2023-01-20T23:18:18.675Z,-6.00
2023-01-20T23:20:50.558Z,-6.78
2023-01-20T23:23:17.697Z,-7.14
2023-01-20T23:25:44.558Z,-6.17
2023-01-20T23:28:11.647Z,-6.86
2023-01-20T23:30:38.500Z,-6.49
2023-01-20T23:33:05.583Z,-6.35
2023-01-20T23:35:34.284Z,-6.37
2023-01-20T23:38:00.907Z,-6.22
2023-01-20T23:40:28.336Z,-6.61
2023-01-20T23:42:55.075Z,-6.36
2023-01-20T23:45:21.608Z,-6.61
2023-01-20T23:47:48.231Z,-7.45
2023-01-20T23:50:15.067Z,-6.37
2023-01-20T23:52:41.964Z,-6.85
2023-01-20T23:55:09.066Z,-6.49
2023-01-20T23:57:35.676Z,-6.48
